sensor_id;sensor_type;location;lat;lon;timestamp;P1;durP1;ratioP1;P2;durP2;ratioP2
68942;SDS011;60852;52.190;4.422;2023-04-24T00:02:18;3.46;;;2.48;;
68942;SDS011;60852;52.190;4.422;2023-04-24T00:04:44;3.18;;;2.34;;
68942;SDS011;60852;52.190;4.422;2023-04-24T00:07:14;3.32;;;2.56;;
68942;SDS011;60852;52.190;4.422;2023-04-24T00:09:42;2.61;;;2.04;;
68942;SDS011;60852;52.190;4.422;2023-04-24T00:12:08;2.91;;;2.28;;
68942;SDS011;60852;52.190;4.422;2023-04-24T00:14:33;2.68;;;2.11;;
68942;SDS011;60852;52.190;4.422;2023-04-24T00:17:00;3.00;;;2.35;;
68942;SDS011;60852;52.190;4.422;2023-04-24T00:19:27;3.03;;;2.38;;
68942;SDS011;60852;52.190;4.422;2023-04-24T00:21:53;3.12;;;2.47;;
68942;SDS011;60852;52.190;4.422;2023-04-24T00:24:20;3.15;;;2.51;;
68942;SDS011;60852;52.190;4.422;2023-04-24T00:26:46;3.04;;;2.41;;
68942;SDS011;60852;52.190;4.422;2023-04-24T00:29:12;3.30;;;2.67;;
68942;SDS011;60852;52.190;4.422;2023-04-24T00:31:37;3.16;;;2.61;;
68942;SDS011;60852;52.190;4.422;2023-04-24T00:34:03;2.62;;;2.14;;
68942;SDS011;60852;52.190;4.422;2023-04-24T00:36:29;2.95;;;2.35;;
68942;SDS011;60852;52.190;4.422;2023-04-24T00:38:56;3.36;;;2.59;;
68942;SDS011;60852;52.190;4.422;2023-04-24T00:41:22;3.07;;;2.36;;
68942;SDS011;60852;52.190;4.422;2023-04-24T00:43:48;3.31;;;2.51;;
68942;SDS011;60852;52.190;4.422;2023-04-24T00:46:14;2.99;;;2.25;;
68942;SDS011;60852;52.190;4.422;2023-04-24T00:48:39;2.79;;;2.13;;
68942;SDS011;60852;52.190;4.422;2023-04-24T00:51:05;2.67;;;2.01;;
68942;SDS011;60852;52.190;4.422;2023-04-24T00:53:31;2.42;;;1.87;;
68942;SDS011;60852;52.190;4.422;2023-04-24T00:55:56;2.23;;;1.76;;
68942;SDS011;60852;52.190;4.422;2023-04-24T00:58:23;2.50;;;1.98;;
68942;SDS011;60852;52.190;4.422;2023-04-24T01:00:49;2.93;;;2.25;;
68942;SDS011;60852;52.190;4.422;2023-04-24T01:03:19;3.00;;;2.30;;
68942;SDS011;60852;52.190;4.422;2023-04-24T01:05:46;2.68;;;2.09;;
68942;SDS011;60852;52.190;4.422;2023-04-24T01:08:13;2.69;;;2.13;;
68942;SDS011;60852;52.190;4.422;2023-04-24T01:10:40;2.44;;;1.96;;
68942;SDS011;60852;52.190;4.422;2023-04-24T01:13:07;2.26;;;1.82;;
68942;SDS011;60852;52.190;4.422;2023-04-24T01:15:34;2.43;;;2.00;;
68942;SDS011;60852;52.190;4.422;2023-04-24T01:17:59;2.36;;;1.99;;
68942;SDS011;60852;52.190;4.422;2023-04-24T01:20:25;2.29;;;1.93;;
68942;SDS011;60852;52.190;4.422;2023-04-24T01:22:51;2.79;;;2.36;;
68942;SDS011;60852;52.190;4.422;2023-04-24T01:25:17;2.47;;;2.08;;
68942;SDS011;60852;52.190;4.422;2023-04-24T01:27:43;2.96;;;2.57;;
68942;SDS011;60852;52.190;4.422;2023-04-24T01:30:09;2.50;;;2.24;;
68942;SDS011;60852;52.190;4.422;2023-04-24T01:32:36;1.86;;;1.68;;
68942;SDS011;60852;52.190;4.422;2023-04-24T01:35:03;2.36;;;2.09;;
68942;SDS011;60852;52.190;4.422;2023-04-24T01:37:29;2.23;;;1.94;;
68942;SDS011;60852;52.190;4.422;2023-04-24T01:39:54;2.27;;;1.99;;
68942;SDS011;60852;52.190;4.422;2023-04-24T01:42:20;2.39;;;2.10;;
68942;SDS011;60852;52.190;4.422;2023-04-24T01:44:46;2.24;;;1.99;;
68942;SDS011;60852;52.190;4.422;2023-04-24T01:47:12;2.38;;;2.13;;
68942;SDS011;60852;52.190;4.422;2023-04-24T01:49:38;1.98;;;1.74;;
68942;SDS011;60852;52.190;4.422;2023-04-24T01:52:04;2.23;;;1.95;;
68942;SDS011;60852;52.190;4.422;2023-04-24T01:54:30;2.17;;;1.92;;
68942;SDS011;60852;52.190;4.422;2023-04-24T01:56:55;2.10;;;1.83;;
68942;SDS011;60852;52.190;4.422;2023-04-24T01:59:21;2.23;;;1.94;;
68942;SDS011;60852;52.190;4.422;2023-04-24T02:01:48;1.92;;;1.68;;
68942;SDS011;60852;52.190;4.422;2023-04-24T02:04:13;2.14;;;1.86;;
68942;SDS011;60852;52.190;4.422;2023-04-24T02:06:40;2.01;;;1.74;;
68942;SDS011;60852;52.190;4.422;2023-04-24T02:09:05;1.81;;;1.59;;
68942;SDS011;60852;52.190;4.422;2023-04-24T02:11:32;1.89;;;1.65;;
68942;SDS011;60852;52.190;4.422;2023-04-24T02:13:57;1.80;;;1.61;;
68942;SDS011;60852;52.190;4.422;2023-04-24T02:16:23;1.66;;;1.48;;
68942;SDS011;60852;52.190;4.422;2023-04-24T02:18:48;1.76;;;1.57;;
68942;SDS011;60852;52.190;4.422;2023-04-24T02:21:14;1.90;;;1.69;;
68942;SDS011;60852;52.190;4.422;2023-04-24T02:23:39;1.71;;;1.54;;
68942;SDS011;60852;52.190;4.422;2023-04-24T02:26:05;1.71;;;1.55;;
68942;SDS011;60852;52.190;4.422;2023-04-24T02:28:31;1.92;;;1.74;;
68942;SDS011;60852;52.190;4.422;2023-04-24T02:30:56;1.84;;;1.65;;
68942;SDS011;60852;52.190;4.422;2023-04-24T02:33:21;1.97;;;1.75;;
68942;SDS011;60852;52.190;4.422;2023-04-24T02:35:47;2.58;;;2.33;;
68942;SDS011;60852;52.190;4.422;2023-04-24T02:38:12;2.44;;;2.18;;
68942;SDS011;60852;52.190;4.422;2023-04-24T02:40:38;2.73;;;2.40;;
68942;SDS011;60852;52.190;4.422;2023-04-24T02:43:03;2.68;;;2.39;;
68942;SDS011;60852;52.190;4.422;2023-04-24T02:45:29;3.02;;;2.64;;
68942;SDS011;60852;52.190;4.422;2023-04-24T02:47:54;2.93;;;2.51;;
68942;SDS011;60852;52.190;4.422;2023-04-24T02:50:19;3.05;;;2.60;;
68942;SDS011;60852;52.190;4.422;2023-04-24T02:52:45;2.74;;;2.30;;
68942;SDS011;60852;52.190;4.422;2023-04-24T02:55:10;2.90;;;2.43;;
68942;SDS011;60852;52.190;4.422;2023-04-24T02:57:36;2.63;;;2.16;;
68942;SDS011;60852;52.190;4.422;2023-04-24T03:00:01;3.10;;;2.47;;
68942;SDS011;60852;52.190;4.422;2023-04-24T03:02:28;3.04;;;2.39;;
68942;SDS011;60852;52.190;4.422;2023-04-24T03:04:53;2.72;;;2.17;;
68942;SDS011;60852;52.190;4.422;2023-04-24T03:07:20;2.75;;;2.22;;
68942;SDS011;60852;52.190;4.422;2023-04-24T03:09:46;2.57;;;2.10;;
68942;SDS011;60852;52.190;4.422;2023-04-24T03:12:12;1.84;;;1.53;;
68942;SDS011;60852;52.190;4.422;2023-04-24T03:14:37;1.86;;;1.56;;
68942;SDS011;60852;52.190;4.422;2023-04-24T03:17:03;1.64;;;1.36;;
68942;SDS011;60852;52.190;4.422;2023-04-24T03:19:28;1.48;;;1.25;;
68942;SDS011;60852;52.190;4.422;2023-04-24T03:21:54;1.32;;;1.10;;
68942;SDS011;60852;52.190;4.422;2023-04-24T03:24:19;1.25;;;1.03;;
68942;SDS011;60852;52.190;4.422;2023-04-24T03:26:45;1.13;;;0.93;;
68942;SDS011;60852;52.190;4.422;2023-04-24T03:29:11;1.16;;;0.96;;
68942;SDS011;60852;52.190;4.422;2023-04-24T03:31:36;1.21;;;0.98;;
68942;SDS011;60852;52.190;4.422;2023-04-24T03:34:01;1.14;;;0.89;;
68942;SDS011;60852;52.190;4.422;2023-04-24T03:36:27;1.53;;;1.18;;
68942;SDS011;60852;52.190;4.422;2023-04-24T03:38:52;1.11;;;0.85;;
68942;SDS011;60852;52.190;4.422;2023-04-24T03:41:18;1.29;;;0.99;;
68942;SDS011;60852;52.190;4.422;2023-04-24T03:43:44;1.85;;;1.39;;
68942;SDS011;60852;52.190;4.422;2023-04-24T03:46:09;1.25;;;0.95;;
68942;SDS011;60852;52.190;4.422;2023-04-24T03:48:35;1.47;;;1.13;;
68942;SDS011;60852;52.190;4.422;2023-04-24T03:51:01;1.47;;;1.16;;
68942;SDS011;60852;52.190;4.422;2023-04-24T03:53:26;1.31;;;1.04;;
68942;SDS011;60852;52.190;4.422;2023-04-24T03:55:52;1.57;;;1.25;;
68942;SDS011;60852;52.190;4.422;2023-04-24T03:58:18;2.23;;;1.80;;
68942;SDS011;60852;52.190;4.422;2023-04-24T04:00:44;2.62;;;2.11;;
68942;SDS011;60852;52.190;4.422;2023-04-24T04:03:09;2.61;;;2.10;;
68942;SDS011;60852;52.190;4.422;2023-04-24T04:05:35;2.31;;;1.88;;
68942;SDS011;60852;52.190;4.422;2023-04-24T04:08:00;2.17;;;1.76;;
68942;SDS011;60852;52.190;4.422;2023-04-24T04:10:26;2.95;;;2.39;;
68942;SDS011;60852;52.190;4.422;2023-04-24T04:12:51;2.70;;;2.17;;
68942;SDS011;60852;52.190;4.422;2023-04-24T04:15:17;3.08;;;2.48;;
68942;SDS011;60852;52.190;4.422;2023-04-24T04:17:42;3.18;;;2.54;;
68942;SDS011;60852;52.190;4.422;2023-04-24T04:20:08;3.67;;;2.96;;
68942;SDS011;60852;52.190;4.422;2023-04-24T04:22:36;4.58;;;3.85;;
68942;SDS011;60852;52.190;4.422;2023-04-24T04:25:03;5.06;;;4.46;;
68942;SDS011;60852;52.190;4.422;2023-04-24T04:27:29;6.11;;;5.76;;
68942;SDS011;60852;52.190;4.422;2023-04-24T04:30:00;7.02;;;6.80;;
68942;SDS011;60852;52.190;4.422;2023-04-24T04:32:30;7.80;;;7.69;;
68942;SDS011;60852;52.190;4.422;2023-04-24T04:34:58;7.47;;;7.46;;
68942;SDS011;60852;52.190;4.422;2023-04-24T04:37:28;7.48;;;7.39;;
68942;SDS011;60852;52.190;4.422;2023-04-24T04:39:59;7.58;;;7.37;;
68942;SDS011;60852;52.190;4.422;2023-04-24T04:42:26;7.00;;;6.80;;
68942;SDS011;60852;52.190;4.422;2023-04-24T04:44:54;6.62;;;6.43;;
68942;SDS011;60852;52.190;4.422;2023-04-24T04:47:22;5.93;;;5.91;;
68942;SDS011;60852;52.190;4.422;2023-04-24T04:49:48;6.26;;;6.16;;
68942;SDS011;60852;52.190;4.422;2023-04-24T04:52:14;7.48;;;7.47;;
68942;SDS011;60852;52.190;4.422;2023-04-24T04:54:39;9.41;;;9.39;;
68942;SDS011;60852;52.190;4.422;2023-04-24T04:57:05;11.03;;;11.00;;
68942;SDS011;60852;52.190;4.422;2023-04-24T04:59:31;13.66;;;13.63;;
68942;SDS011;60852;52.190;4.422;2023-04-24T05:01:56;16.17;;;16.05;;
68942;SDS011;60852;52.190;4.422;2023-04-24T05:04:22;17.82;;;17.76;;
68942;SDS011;60852;52.190;4.422;2023-04-24T05:06:47;18.35;;;18.30;;
68942;SDS011;60852;52.190;4.422;2023-04-24T05:09:12;18.48;;;18.44;;
68942;SDS011;60852;52.190;4.422;2023-04-24T05:11:38;17.89;;;17.81;;
68942;SDS011;60852;52.190;4.422;2023-04-24T05:14:03;16.46;;;16.43;;
68942;SDS011;60852;52.190;4.422;2023-04-24T05:16:29;15.87;;;15.83;;
68942;SDS011;60852;52.190;4.422;2023-04-24T05:18:55;14.52;;;14.51;;
68942;SDS011;60852;52.190;4.422;2023-04-24T05:21:21;14.10;;;14.10;;
68942;SDS011;60852;52.190;4.422;2023-04-24T05:23:46;14.61;;;14.58;;
68942;SDS011;60852;52.190;4.422;2023-04-24T05:26:12;13.91;;;13.91;;
68942;SDS011;60852;52.190;4.422;2023-04-24T05:28:38;13.02;;;13.02;;
68942;SDS011;60852;52.190;4.422;2023-04-24T05:31:04;12.12;;;12.12;;
68942;SDS011;60852;52.190;4.422;2023-04-24T05:33:29;12.09;;;12.09;;
68942;SDS011;60852;52.190;4.422;2023-04-24T05:35:55;12.89;;;12.82;;
68942;SDS011;60852;52.190;4.422;2023-04-24T05:38:21;13.16;;;13.04;;
68942;SDS011;60852;52.190;4.422;2023-04-24T05:40:46;12.47;;;12.36;;
68942;SDS011;60852;52.190;4.422;2023-04-24T05:43:12;12.11;;;12.07;;
68942;SDS011;60852;52.190;4.422;2023-04-24T05:45:38;12.71;;;12.71;;
68942;SDS011;60852;52.190;4.422;2023-04-24T05:48:04;12.24;;;12.24;;
68942;SDS011;60852;52.190;4.422;2023-04-24T05:50:30;11.57;;;11.57;;
68942;SDS011;60852;52.190;4.422;2023-04-24T05:52:56;11.95;;;11.95;;
68942;SDS011;60852;52.190;4.422;2023-04-24T05:55:27;10.78;;;10.57;;
68942;SDS011;60852;52.190;4.422;2023-04-24T05:57:52;10.41;;;9.95;;
68942;SDS011;60852;52.190;4.422;2023-04-24T06:00:18;10.16;;;9.57;;
68942;SDS011;60852;52.190;4.422;2023-04-24T06:02:45;10.39;;;9.77;;
68942;SDS011;60852;52.190;4.422;2023-04-24T06:05:11;10.35;;;9.62;;
68942;SDS011;60852;52.190;4.422;2023-04-24T06:07:37;10.68;;;9.74;;
68942;SDS011;60852;52.190;4.422;2023-04-24T06:10:02;10.98;;;9.98;;
68942;SDS011;60852;52.190;4.422;2023-04-24T06:12:28;10.40;;;9.51;;
68942;SDS011;60852;52.190;4.422;2023-04-24T06:14:53;11.04;;;10.10;;
68942;SDS011;60852;52.190;4.422;2023-04-24T06:17:20;10.22;;;9.29;;
68942;SDS011;60852;52.190;4.422;2023-04-24T06:19:46;10.49;;;9.50;;
68942;SDS011;60852;52.190;4.422;2023-04-24T06:22:12;10.30;;;9.25;;
68942;SDS011;60852;52.190;4.422;2023-04-24T06:24:37;10.09;;;9.00;;
68942;SDS011;60852;52.190;4.422;2023-04-24T06:27:02;10.10;;;8.94;;
68942;SDS011;60852;52.190;4.422;2023-04-24T06:29:28;9.71;;;8.64;;
68942;SDS011;60852;52.190;4.422;2023-04-24T06:31:53;11.24;;;9.75;;
68942;SDS011;60852;52.190;4.422;2023-04-24T06:34:19;10.89;;;9.44;;
68942;SDS011;60852;52.190;4.422;2023-04-24T06:36:44;10.73;;;9.35;;
68942;SDS011;60852;52.190;4.422;2023-04-24T06:39:11;9.20;;;8.14;;
68942;SDS011;60852;52.190;4.422;2023-04-24T06:41:37;9.24;;;8.13;;
68942;SDS011;60852;52.190;4.422;2023-04-24T06:44:02;10.04;;;8.49;;
68942;SDS011;60852;52.190;4.422;2023-04-24T06:46:28;8.74;;;7.28;;
68942;SDS011;60852;52.190;4.422;2023-04-24T06:48:53;9.65;;;7.66;;
68942;SDS011;60852;52.190;4.422;2023-04-24T06:51:22;9.35;;;7.38;;
68942;SDS011;60852;52.190;4.422;2023-04-24T06:53:48;10.42;;;8.01;;
68942;SDS011;60852;52.190;4.422;2023-04-24T06:56:14;10.82;;;8.15;;
68942;SDS011;60852;52.190;4.422;2023-04-24T06:58:40;11.35;;;8.45;;
68942;SDS011;60852;52.190;4.422;2023-04-24T07:01:06;11.41;;;8.23;;
68942;SDS011;60852;52.190;4.422;2023-04-24T07:03:31;10.67;;;7.68;;
68942;SDS011;60852;52.190;4.422;2023-04-24T07:05:56;10.08;;;7.47;;
68942;SDS011;60852;52.190;4.422;2023-04-24T07:08:23;9.92;;;7.24;;
68942;SDS011;60852;52.190;4.422;2023-04-24T07:10:49;10.26;;;7.39;;
68942;SDS011;60852;52.190;4.422;2023-04-24T07:13:16;8.99;;;6.65;;
68942;SDS011;60852;52.190;4.422;2023-04-24T07:15:42;8.54;;;6.43;;
68942;SDS011;60852;52.190;4.422;2023-04-24T07:18:08;9.66;;;7.08;;
68942;SDS011;60852;52.190;4.422;2023-04-24T07:20:34;8.85;;;6.52;;
68942;SDS011;60852;52.190;4.422;2023-04-24T07:22:59;8.38;;;6.36;;
68942;SDS011;60852;52.190;4.422;2023-04-24T07:25:25;10.29;;;7.79;;
68942;SDS011;60852;52.190;4.422;2023-04-24T07:27:50;8.44;;;6.40;;
68942;SDS011;60852;52.190;4.422;2023-04-24T07:30:16;8.45;;;6.46;;
68942;SDS011;60852;52.190;4.422;2023-04-24T07:32:41;7.69;;;5.95;;
68942;SDS011;60852;52.190;4.422;2023-04-24T07:35:07;8.40;;;6.42;;
68942;SDS011;60852;52.190;4.422;2023-04-24T07:37:34;7.28;;;5.64;;
68942;SDS011;60852;52.190;4.422;2023-04-24T07:40:00;6.99;;;5.52;;
68942;SDS011;60852;52.190;4.422;2023-04-24T07:42:26;7.93;;;6.02;;
68942;SDS011;60852;52.190;4.422;2023-04-24T07:44:51;8.99;;;6.96;;
68942;SDS011;60852;52.190;4.422;2023-04-24T07:47:17;7.79;;;6.44;;
68942;SDS011;60852;52.190;4.422;2023-04-24T07:49:42;7.58;;;6.13;;
68942;SDS011;60852;52.190;4.422;2023-04-24T07:52:08;8.01;;;6.30;;
68942;SDS011;60852;52.190;4.422;2023-04-24T07:54:34;8.21;;;6.36;;
68942;SDS011;60852;52.190;4.422;2023-04-24T07:56:59;7.05;;;5.61;;
68942;SDS011;60852;52.190;4.422;2023-04-24T07:59:25;7.03;;;5.58;;
68942;SDS011;60852;52.190;4.422;2023-04-24T08:01:51;6.54;;;5.25;;
68942;SDS011;60852;52.190;4.422;2023-04-24T08:04:16;5.51;;;4.67;;
68942;SDS011;60852;52.190;4.422;2023-04-24T08:06:43;5.76;;;4.87;;
68942;SDS011;60852;52.190;4.422;2023-04-24T08:09:08;5.78;;;4.88;;
68942;SDS011;60852;52.190;4.422;2023-04-24T08:11:34;5.73;;;4.89;;
68942;SDS011;60852;52.190;4.422;2023-04-24T08:13:59;6.03;;;5.15;;
68942;SDS011;60852;52.190;4.422;2023-04-24T08:16:25;6.49;;;5.47;;
68942;SDS011;60852;52.190;4.422;2023-04-24T08:18:51;6.04;;;4.98;;
68942;SDS011;60852;52.190;4.422;2023-04-24T08:21:16;6.31;;;5.04;;
68942;SDS011;60852;52.190;4.422;2023-04-24T08:23:44;6.32;;;5.08;;
68942;SDS011;60852;52.190;4.422;2023-04-24T08:26:10;4.96;;;4.15;;
68942;SDS011;60852;52.190;4.422;2023-04-24T08:28:36;5.23;;;4.39;;
68942;SDS011;60852;52.190;4.422;2023-04-24T08:31:02;4.96;;;4.17;;
68942;SDS011;60852;52.190;4.422;2023-04-24T08:33:28;5.28;;;4.41;;
68942;SDS011;60852;52.190;4.422;2023-04-24T08:36:00;4.75;;;4.04;;
68942;SDS011;60852;52.190;4.422;2023-04-24T08:38:26;4.99;;;4.20;;
68942;SDS011;60852;52.190;4.422;2023-04-24T08:40:52;4.97;;;4.16;;
68942;SDS011;60852;52.190;4.422;2023-04-24T08:43:18;4.18;;;3.45;;
68942;SDS011;60852;52.190;4.422;2023-04-24T08:45:47;4.42;;;3.58;;
68942;SDS011;60852;52.190;4.422;2023-04-24T08:48:12;5.14;;;4.18;;
68942;SDS011;60852;52.190;4.422;2023-04-24T08:50:38;6.33;;;5.22;;
68942;SDS011;60852;52.190;4.422;2023-04-24T08:53:08;4.83;;;3.99;;
68942;SDS011;60852;52.190;4.422;2023-04-24T08:55:34;4.25;;;3.49;;
68942;SDS011;60852;52.190;4.422;2023-04-24T08:58:00;4.86;;;3.87;;
68942;SDS011;60852;52.190;4.422;2023-04-24T09:00:27;5.30;;;4.17;;
68942;SDS011;60852;52.190;4.422;2023-04-24T09:02:53;4.39;;;3.52;;
68942;SDS011;60852;52.190;4.422;2023-04-24T09:05:21;4.16;;;3.21;;
68942;SDS011;60852;52.190;4.422;2023-04-24T09:07:55;4.92;;;3.64;;
68942;SDS011;60852;52.190;4.422;2023-04-24T09:10:22;4.88;;;3.68;;
68942;SDS011;60852;52.190;4.422;2023-04-24T09:12:50;3.69;;;2.87;;
68942;SDS011;60852;52.190;4.422;2023-04-24T09:15:17;4.32;;;3.49;;
68942;SDS011;60852;52.190;4.422;2023-04-24T09:17:44;2.96;;;2.42;;
68942;SDS011;60852;52.190;4.422;2023-04-24T09:20:09;2.80;;;2.27;;
68942;SDS011;60852;52.190;4.422;2023-04-24T09:22:35;2.77;;;2.18;;
68942;SDS011;60852;52.190;4.422;2023-04-24T09:25:07;3.38;;;2.53;;
68942;SDS011;60852;52.190;4.422;2023-04-24T09:27:34;3.33;;;2.43;;
68942;SDS011;60852;52.190;4.422;2023-04-24T09:30:00;4.14;;;2.96;;
68942;SDS011;60852;52.190;4.422;2023-04-24T09:32:26;3.20;;;2.35;;
68942;SDS011;60852;52.190;4.422;2023-04-24T09:37:43;5.03;;;3.51;;
68942;SDS011;60852;52.190;4.422;2023-04-24T09:40:12;5.74;;;3.94;;
68942;SDS011;60852;52.190;4.422;2023-04-24T09:42:43;4.56;;;3.11;;
68942;SDS011;60852;52.190;4.422;2023-04-24T09:45:18;4.35;;;2.95;;
68942;SDS011;60852;52.190;4.422;2023-04-24T09:47:45;3.73;;;2.54;;
68942;SDS011;60852;52.190;4.422;2023-04-24T09:52:57;5.10;;;3.44;;
68942;SDS011;60852;52.190;4.422;2023-04-24T09:55:24;5.46;;;3.69;;
68942;SDS011;60852;52.190;4.422;2023-04-24T10:00:23;3.19;;;2.21;;
68942;SDS011;60852;52.190;4.422;2023-04-24T10:02:56;3.57;;;2.48;;
68942;SDS011;60852;52.190;4.422;2023-04-24T10:08:01;3.35;;;2.32;;
68942;SDS011;60852;52.190;4.422;2023-04-24T10:10:32;2.99;;;2.08;;
68942;SDS011;60852;52.190;4.422;2023-04-24T10:12:59;3.31;;;2.34;;
68942;SDS011;60852;52.190;4.422;2023-04-24T10:15:26;3.53;;;2.53;;
68942;SDS011;60852;52.190;4.422;2023-04-24T10:17:52;3.48;;;2.47;;
68942;SDS011;60852;52.190;4.422;2023-04-24T10:20:23;4.36;;;2.93;;
68942;SDS011;60852;52.190;4.422;2023-04-24T10:22:51;4.81;;;3.19;;
68942;SDS011;60852;52.190;4.422;2023-04-24T10:25:19;5.45;;;3.58;;
68942;SDS011;60852;52.190;4.422;2023-04-24T10:27:46;6.00;;;3.87;;
68942;SDS011;60852;52.190;4.422;2023-04-24T10:30:13;6.95;;;4.54;;
68942;SDS011;60852;52.190;4.422;2023-04-24T10:32:39;5.94;;;4.04;;
68942;SDS011;60852;52.190;4.422;2023-04-24T10:35:06;5.38;;;3.64;;
68942;SDS011;60852;52.190;4.422;2023-04-24T10:37:39;5.90;;;3.97;;
68942;SDS011;60852;52.190;4.422;2023-04-24T10:40:11;5.95;;;3.92;;
68942;SDS011;60852;52.190;4.422;2023-04-24T10:42:41;6.05;;;4.00;;
68942;SDS011;60852;52.190;4.422;2023-04-24T10:45:15;6.14;;;4.02;;
68942;SDS011;60852;52.190;4.422;2023-04-24T10:48:05;6.73;;;4.43;;
68942;SDS011;60852;52.190;4.422;2023-04-24T10:50:48;6.25;;;4.13;;
68942;SDS011;60852;52.190;4.422;2023-04-24T10:53:17;5.27;;;3.45;;
68942;SDS011;60852;52.190;4.422;2023-04-24T10:58:17;5.34;;;3.55;;
68942;SDS011;60852;52.190;4.422;2023-04-24T11:00:55;4.94;;;3.39;;
68942;SDS011;60852;52.190;4.422;2023-04-24T11:03:24;5.12;;;3.54;;
68942;SDS011;60852;52.190;4.422;2023-04-24T11:05:51;5.74;;;4.04;;
68942;SDS011;60852;52.190;4.422;2023-04-24T11:08:25;4.97;;;3.53;;
68942;SDS011;60852;52.190;4.422;2023-04-24T11:10:59;4.41;;;3.11;;
68942;SDS011;60852;52.190;4.422;2023-04-24T11:14:00;5.44;;;3.84;;
68942;SDS011;60852;52.190;4.422;2023-04-24T11:27:12;8.87;;;6.39;;
68942;SDS011;60852;52.190;4.422;2023-04-24T11:29:40;7.76;;;5.89;;
68942;SDS011;60852;52.190;4.422;2023-04-24T11:34:56;7.41;;;5.15;;
68942;SDS011;60852;52.190;4.422;2023-04-24T11:37:27;8.51;;;5.77;;
68942;SDS011;60852;52.190;4.422;2023-04-24T11:39:58;8.41;;;5.72;;
68942;SDS011;60852;52.190;4.422;2023-04-24T11:42:24;9.06;;;5.96;;
68942;SDS011;60852;52.190;4.422;2023-04-24T11:44:53;8.54;;;5.61;;
68942;SDS011;60852;52.190;4.422;2023-04-24T11:47:28;8.91;;;5.86;;
68942;SDS011;60852;52.190;4.422;2023-04-24T11:49:55;9.24;;;6.15;;
68942;SDS011;60852;52.190;4.422;2023-04-24T11:52:20;10.10;;;6.69;;
68942;SDS011;60852;52.190;4.422;2023-04-24T11:54:47;9.73;;;6.62;;
68942;SDS011;60852;52.190;4.422;2023-04-24T11:57:16;8.97;;;6.17;;
68942;SDS011;60852;52.190;4.422;2023-04-24T11:59:44;8.96;;;6.17;;
68942;SDS011;60852;52.190;4.422;2023-04-24T12:02:19;8.96;;;6.22;;
68942;SDS011;60852;52.190;4.422;2023-04-24T12:04:54;9.36;;;6.58;;
68942;SDS011;60852;52.190;4.422;2023-04-24T12:07:21;9.78;;;6.93;;
68942;SDS011;60852;52.190;4.422;2023-04-24T12:09:54;9.62;;;6.67;;
68942;SDS011;60852;52.190;4.422;2023-04-24T12:12:27;9.61;;;6.64;;
68942;SDS011;60852;52.190;4.422;2023-04-24T12:14:53;9.16;;;6.50;;
68942;SDS011;60852;52.190;4.422;2023-04-24T12:17:30;9.51;;;6.68;;
68942;SDS011;60852;52.190;4.422;2023-04-24T12:19:58;8.79;;;6.23;;
68942;SDS011;60852;52.190;4.422;2023-04-24T12:22:42;8.82;;;6.33;;
68942;SDS011;60852;52.190;4.422;2023-04-24T12:25:11;9.54;;;6.89;;
68942;SDS011;60852;52.190;4.422;2023-04-24T12:27:37;9.03;;;6.55;;
68942;SDS011;60852;52.190;4.422;2023-04-24T12:30:04;7.79;;;5.93;;
68942;SDS011;60852;52.190;4.422;2023-04-24T12:32:31;8.07;;;6.06;;
68942;SDS011;60852;52.190;4.422;2023-04-24T12:34:57;8.05;;;6.19;;
68942;SDS011;60852;52.190;4.422;2023-04-24T12:37:26;7.20;;;5.57;;
68942;SDS011;60852;52.190;4.422;2023-04-24T12:39:59;8.34;;;6.59;;
68942;SDS011;60852;52.190;4.422;2023-04-24T12:42:42;7.67;;;6.15;;
68942;SDS011;60852;52.190;4.422;2023-04-24T12:45:11;7.45;;;5.97;;
68942;SDS011;60852;52.190;4.422;2023-04-24T12:47:38;7.56;;;6.00;;
68942;SDS011;60852;52.190;4.422;2023-04-24T12:50:05;7.23;;;5.79;;
68942;SDS011;60852;52.190;4.422;2023-04-24T12:52:32;7.25;;;5.60;;
68942;SDS011;60852;52.190;4.422;2023-04-24T12:54:59;7.77;;;6.00;;
68942;SDS011;60852;52.190;4.422;2023-04-24T12:57:26;8.37;;;6.45;;
68942;SDS011;60852;52.190;4.422;2023-04-24T12:59:57;8.24;;;6.37;;
68942;SDS011;60852;52.190;4.422;2023-04-24T13:02:23;7.63;;;5.94;;
68942;SDS011;60852;52.190;4.422;2023-04-24T13:04:50;7.56;;;6.11;;
68942;SDS011;60852;52.190;4.422;2023-04-24T13:07:16;7.16;;;5.94;;
68942;SDS011;60852;52.190;4.422;2023-04-24T13:09:43;7.73;;;6.17;;
68942;SDS011;60852;52.190;4.422;2023-04-24T13:12:10;8.48;;;6.57;;
68942;SDS011;60852;52.190;4.422;2023-04-24T13:14:36;8.21;;;6.31;;
68942;SDS011;60852;52.190;4.422;2023-04-24T13:17:02;8.02;;;6.28;;
68942;SDS011;60852;52.190;4.422;2023-04-24T13:19:28;8.17;;;6.60;;
68942;SDS011;60852;52.190;4.422;2023-04-24T13:21:54;8.51;;;6.79;;
68942;SDS011;60852;52.190;4.422;2023-04-24T13:24:25;8.37;;;6.57;;
68942;SDS011;60852;52.190;4.422;2023-04-24T13:26:54;8.35;;;6.46;;
68942;SDS011;60852;52.190;4.422;2023-04-24T13:29:19;7.62;;;6.21;;
68942;SDS011;60852;52.190;4.422;2023-04-24T13:31:50;8.42;;;6.83;;
68942;SDS011;60852;52.190;4.422;2023-04-24T13:34:16;8.71;;;7.03;;
68942;SDS011;60852;52.190;4.422;2023-04-24T13:36:42;8.56;;;6.87;;
68942;SDS011;60852;52.190;4.422;2023-04-24T13:39:08;9.04;;;7.32;;
68942;SDS011;60852;52.190;4.422;2023-04-24T13:41:34;7.53;;;6.32;;
68942;SDS011;60852;52.190;4.422;2023-04-24T13:44:01;6.14;;;5.16;;
68942;SDS011;60852;52.190;4.422;2023-04-24T13:46:27;7.81;;;6.31;;
68942;SDS011;60852;52.190;4.422;2023-04-24T13:48:52;7.67;;;6.37;;
68942;SDS011;60852;52.190;4.422;2023-04-24T13:51:18;8.34;;;6.68;;
68942;SDS011;60852;52.190;4.422;2023-04-24T13:53:43;8.01;;;6.59;;
68942;SDS011;60852;52.190;4.422;2023-04-24T13:56:08;8.21;;;6.88;;
68942;SDS011;60852;52.190;4.422;2023-04-24T13:58:34;8.05;;;6.61;;
68942;SDS011;60852;52.190;4.422;2023-04-24T14:01:02;7.77;;;6.35;;
68942;SDS011;60852;52.190;4.422;2023-04-24T14:03:28;8.55;;;6.95;;
68942;SDS011;60852;52.190;4.422;2023-04-24T14:05:54;8.08;;;6.49;;
68942;SDS011;60852;52.190;4.422;2023-04-24T14:08:19;8.15;;;6.54;;
68942;SDS011;60852;52.190;4.422;2023-04-24T14:10:44;8.82;;;6.92;;
68942;SDS011;60852;52.190;4.422;2023-04-24T14:13:10;9.87;;;7.57;;
68942;SDS011;60852;52.190;4.422;2023-04-24T14:15:36;8.91;;;7.16;;
68942;SDS011;60852;52.190;4.422;2023-04-24T14:18:02;8.77;;;7.03;;
68942;SDS011;60852;52.190;4.422;2023-04-24T14:20:28;9.98;;;7.82;;
68942;SDS011;60852;52.190;4.422;2023-04-24T14:22:53;10.22;;;8.02;;
68942;SDS011;60852;52.190;4.422;2023-04-24T14:25:19;10.08;;;7.78;;
68942;SDS011;60852;52.190;4.422;2023-04-24T14:27:44;10.05;;;8.04;;
68942;SDS011;60852;52.190;4.422;2023-04-24T14:30:10;9.26;;;7.45;;
68942;SDS011;60852;52.190;4.422;2023-04-24T14:32:38;9.51;;;7.55;;
68942;SDS011;60852;52.190;4.422;2023-04-24T14:35:05;8.84;;;7.12;;
68942;SDS011;60852;52.190;4.422;2023-04-24T14:37:31;7.74;;;6.56;;
68942;SDS011;60852;52.190;4.422;2023-04-24T14:39:57;8.03;;;6.75;;
68942;SDS011;60852;52.190;4.422;2023-04-24T14:42:22;8.32;;;6.94;;
68942;SDS011;60852;52.190;4.422;2023-04-24T14:44:48;7.83;;;6.61;;
68942;SDS011;60852;52.190;4.422;2023-04-24T14:47:13;8.11;;;6.76;;
68942;SDS011;60852;52.190;4.422;2023-04-24T14:49:39;6.71;;;5.58;;
68942;SDS011;60852;52.190;4.422;2023-04-24T14:52:04;6.61;;;5.71;;
68942;SDS011;60852;52.190;4.422;2023-04-24T14:54:30;7.04;;;6.04;;
68942;SDS011;60852;52.190;4.422;2023-04-24T14:56:55;7.24;;;6.11;;
68942;SDS011;60852;52.190;4.422;2023-04-24T14:59:22;7.48;;;6.30;;
68942;SDS011;60852;52.190;4.422;2023-04-24T15:01:47;7.61;;;6.38;;
68942;SDS011;60852;52.190;4.422;2023-04-24T15:04:13;7.72;;;6.49;;
68942;SDS011;60852;52.190;4.422;2023-04-24T15:06:38;7.06;;;6.10;;
68942;SDS011;60852;52.190;4.422;2023-04-24T15:09:04;7.33;;;6.51;;
68942;SDS011;60852;52.190;4.422;2023-04-24T15:11:29;6.66;;;5.84;;